Hamilton, Missouri
Current Conditions -  °F | °C
As of 3:15 AM on Wednesday 22 Oct 2014 (Local Time) from KGPH Reporting Station
Scattered Clouds Scattered Clouds  
Wind Chill: 52°   Ceiling: Unl
Heat Index: 52°   Visibility: 10mi
Dew Point: 45°   Wind: 3mph
Humidity: 76%   Direction: 120°ESE
Pressure: 30.15"   Gusts: NA
Location:  39.74°N, 94°W
Report Text: KGPH 220815Z AUTO 12003KT 10SM SCT070 11/07 A3015 RMK AO2
Loading
Personal Weather Stations






























Interactive Weather Map
Tropical Storm Tracking
New forecast layout! Learn more

10-Day Weather Forecast

Advertisements
Track Severe Weather on mobile